Time;durP1;ratioP1;P1;durP2;ratioP2;P2;SDS_P1;SDS_P2;PMS_P1;PMS_P2;Temp;Humidity;BMP_temperature;BMP_pressure;BME280_temperature;BME280_humidity;BME280_pressure;Samples;Min_cycle;Max_cycle;Signal;HPM_P1;HPM_P2
2022/07/17 00:00:31;;;;;;;6.05;1.08;;;14.00;95.00;;;;;;4993019;28;20025;-57
2022/07/17 00:02:57;;;;;;;5.15;1.38;;;13.80;95.80;;;;;;5007033;28;20381;-57
2022/07/17 00:05:22;;;;;;;4.30;1.65;;;13.70;96.20;;;;;;5015764;28;20163;-57
2022/07/17 00:07:49;;;;;;;7.68;2.00;;;13.60;96.70;;;;;;5008661;28;20021;-59
2022/07/17 00:10:16;;;;;;;3.55;1.38;;;13.50;97.30;;;;;;5025778;28;20033;-60
2022/07/17 00:12:42;;;;;;;3.00;1.30;;;13.40;97.80;;;;;;5010670;28;20024;-57
2022/07/17 00:15:07;;;;;;;11.27;3.50;;;13.30;98.30;;;;;;5009244;28;20105;-58
2022/07/17 00:17:34;;;;;;;6.85;1.33;;;13.20;98.50;;;;;;5010451;28;20026;-60
2022/07/17 00:19:59;;;;;;;2.70;1.05;;;13.20;98.70;;;;;;5010134;28;20022;-60
2022/07/17 00:22:25;;;;;;;6.18;1.38;;;13.20;98.60;;;;;;5014850;28;20021;-57
2022/07/17 00:24:51;;;;;;;2.83;1.20;;;13.20;98.80;;;;;;5013407;28;20036;-59
2022/07/17 00:27:16;;;;;;;3.38;1.30;;;13.20;98.90;;;;;;5012142;28;20056;-55
2022/07/17 00:29:42;;;;;;;6.75;1.30;;;13.20;99.20;;;;;;5007647;28;20076;-58
2022/07/17 00:32:07;;;;;;;3.90;0.90;;;13.10;99.60;;;;;;5022426;28;20441;-59
2022/07/17 00:34:33;;;;;;;3.67;1.10;;;13.00;99.90;;;;;;5009466;28;20638;-59
2022/07/17 00:36:58;;;;;;;4.50;1.35;;;12.90;99.90;;;;;;5001516;28;20030;-56
2022/07/17 00:39:24;;;;;;;6.93;1.42;;;12.90;99.90;;;;;;4996776;28;20087;-59
2022/07/17 00:41:50;;;;;;;6.72;1.40;;;12.90;99.90;;;;;;5010881;28;20045;-59
2022/07/17 00:44:16;;;;;;;7.35;1.83;;;12.80;99.90;;;;;;5009007;28;20072;-58
2022/07/17 00:46:41;;;;;;;6.88;1.45;;;12.80;99.90;;;;;;5024616;28;20033;-58
2022/07/17 00:49:08;;;;;;;6.25;1.58;;;12.70;99.90;;;;;;5010343;28;20022;-57
2022/07/17 00:51:34;;;;;;;6.05;1.35;;;12.60;99.90;;;;;;5008640;28;20387;-58
2022/07/17 00:54:01;;;;;;;4.07;1.67;;;12.60;99.90;;;;;;5013278;28;20037;-59
2022/07/17 00:56:28;;;;;;;4.88;1.88;;;12.50;99.90;;;;;;5030255;28;20116;-57
2022/07/17 00:58:54;;;;;;;13.82;1.73;;;12.50;99.90;;;;;;5012816;28;20026;-59
2022/07/17 01:01:20;;;;;;;3.92;1.40;;;12.40;99.90;;;;;;5013546;28;20524;-58
2022/07/17 01:03:46;;;;;;;7.38;1.80;;;12.40;99.90;;;;;;5012593;28;20126;-58
2022/07/17 01:06:12;;;;;;;7.25;1.52;;;12.40;99.90;;;;;;5009918;28;20057;-58
2022/07/17 01:08:37;;;;;;;10.02;1.40;;;12.30;99.90;;;;;;5014078;28;20471;-59
2022/07/17 01:11:04;;;;;;;6.45;1.95;;;12.30;99.90;;;;;;5013243;28;20034;-59
2022/07/17 01:13:33;;;;;;;3.65;1.23;;;12.30;99.90;;;;;;5021419;23;20053;-59
2022/07/17 01:15:58;;;;;;;3.55;1.00;;;12.30;99.90;;;;;;5012072;28;20021;-57
2022/07/17 01:18:24;;;;;;;8.00;1.60;;;12.30;99.90;;;;;;5011198;28;20048;-58
2022/07/17 01:20:50;;;;;;;5.28;1.23;;;12.30;99.90;;;;;;5009087;28;20531;-57
2022/07/17 01:23:18;;;;;;;1.70;1.10;;;12.40;99.90;;;;;;5003031;28;20065;-57
2022/07/17 01:25:45;;;;;;;3.47;1.35;;;12.40;99.90;;;;;;4990791;28;20038;-58
2022/07/17 01:28:11;;;;;;;9.10;1.30;;;12.50;99.90;;;;;;4993288;28;20440;-58
2022/07/17 01:30:44;;;;;;;3.47;1.27;;;12.50;99.90;;;;;;4992895;28;20022;-56
2022/07/17 01:33:11;;;;;;;2.80;1.15;;;12.40;99.90;;;;;;4995048;28;20040;-58
2022/07/17 01:35:36;;;;;;;3.97;1.23;;;12.40;99.90;;;;;;4985559;28;20492;-58
2022/07/17 01:38:02;;;;;;;4.57;1.50;;;12.30;99.90;;;;;;4994444;28;20089;-56
2022/07/17 01:40:27;;;;;;;7.88;2.00;;;12.20;99.90;;;;;;4992472;28;20073;-58
2022/07/17 01:42:53;;;;;;;4.60;1.60;;;12.20;99.90;;;;;;4992586;28;20030;-58
2022/07/17 01:45:19;;;;;;;5.03;1.38;;;12.00;99.90;;;;;;4999091;28;20594;-58
2022/07/17 01:47:45;;;;;;;3.80;1.25;;;11.90;99.90;;;;;;4991351;28;20038;-59
2022/07/17 01:50:12;;;;;;;6.50;1.80;;;11.80;99.90;;;;;;4997877;28;20022;-58
2022/07/17 01:52:39;;;;;;;4.65;2.40;;;11.70;99.90;;;;;;4992401;28;20102;-57
2022/07/17 01:55:07;;;;;;;11.02;3.08;;;11.60;99.90;;;;;;4992547;28;20487;-57
2022/07/17 01:57:32;;;;;;;7.88;2.00;;;11.50;99.90;;;;;;4987398;28;20022;-57
2022/07/17 01:59:58;;;;;;;4.57;1.75;;;11.50;99.90;;;;;;4997486;28;20030;-58
2022/07/17 02:02:24;;;;;;;10.43;2.10;;;11.40;99.90;;;;;;4978842;28;20030;-56
2022/07/17 02:04:49;;;;;;;6.50;1.55;;;11.30;99.90;;;;;;4991589;28;20435;-56
2022/07/17 02:07:15;;;;;;;3.33;1.48;;;11.30;99.90;;;;;;4992419;28;20117;-58
2022/07/17 02:09:40;;;;;;;3.75;1.45;;;11.20;99.90;;;;;;4994269;28;20026;-57
2022/07/17 02:12:07;;;;;;;5.45;1.45;;;11.20;99.90;;;;;;4993331;28;20099;-59
2022/07/17 02:14:35;;;;;;;3.38;1.80;;;11.10;99.90;;;;;;4994988;28;20473;-57
2022/07/17 02:17:00;;;;;;;11.38;2.20;;;11.10;99.90;;;;;;4997858;28;20499;-57
2022/07/17 02:19:26;;;;;;;4.65;1.90;;;11.00;99.90;;;;;;4993648;28;20030;-56
2022/07/17 02:21:52;;;;;;;5.43;2.00;;;11.10;99.90;;;;;;4997405;28;20110;-57
2022/07/17 02:24:18;;;;;;;5.78;1.88;;;11.10;99.90;;;;;;4991312;28;20042;-56
2022/07/17 02:26:44;;;;;;;5.18;1.60;;;11.10;99.90;;;;;;4991402;28;20519;-58
2022/07/17 02:29:09;;;;;;;5.47;1.65;;;11.10;99.90;;;;;;4992638;28;20480;-58
2022/07/17 02:31:35;;;;;;;6.88;1.60;;;11.10;99.90;;;;;;5011914;28;20048;-56
2022/07/17 02:34:01;;;;;;;8.25;1.83;;;11.10;99.90;;;;;;4998028;28;20033;-57
2022/07/17 02:36:26;;;;;;;5.85;1.98;;;11.10;99.90;;;;;;4992358;28;20080;-57
2022/07/17 02:38:53;;;;;;;2.67;1.55;;;11.10;99.90;;;;;;4993266;28;20039;-57
2022/07/17 02:41:19;;;;;;;8.65;1.80;;;11.10;99.90;;;;;;4992241;28;20053;-57
2022/07/17 02:43:44;;;;;;;6.55;1.85;;;11.00;99.90;;;;;;4991497;28;20034;-57
2022/07/17 02:46:10;;;;;;;6.88;1.90;;;11.00;99.90;;;;;;4990232;28;20034;-57
2022/07/17 02:48:36;;;;;;;9.90;1.85;;;11.00;99.90;;;;;;4987215;28;20492;-56
2022/07/17 02:51:01;;;;;;;8.85;1.83;;;11.00;99.90;;;;;;4991058;28;20027;-53
2022/07/17 02:53:27;;;;;;;4.25;1.67;;;10.90;99.90;;;;;;4994464;28;20026;-54
2022/07/17 02:55:53;;;;;;;8.02;1.95;;;10.90;99.90;;;;;;4990435;28;20030;-53
2022/07/17 02:58:19;;;;;;;4.35;1.67;;;10.80;99.90;;;;;;4992077;28;20416;-56
2022/07/17 03:00:44;;;;;;;4.90;1.73;;;10.80;99.90;;;;;;4996513;28;20507;-52
2022/07/17 03:03:10;;;;;;;7.18;1.80;;;10.70;99.90;;;;;;4984869;28;20108;-55
2022/07/17 03:05:36;;;;;;;4.43;1.73;;;10.70;99.90;;;;;;4993557;28;20026;-56
2022/07/17 03:08:01;;;;;;;4.15;1.25;;;10.70;99.90;;;;;;4990922;28;20096;-57
2022/07/17 03:10:27;;;;;;;7.75;1.63;;;10.70;99.90;;;;;;4991330;28;20706;-57
2022/07/17 03:12:53;;;;;;;7.22;1.73;;;10.70;99.90;;;;;;4989751;28;20034;-57
2022/07/17 03:15:18;;;;;;;7.20;1.75;;;10.70;99.90;;;;;;4987452;28;20026;-58
2022/07/17 03:17:44;;;;;;;9.85;1.58;;;10.70;99.90;;;;;;4992345;28;20090;-57
2022/07/17 03:20:10;;;;;;;4.57;1.48;;;10.70;99.90;;;;;;4998631;28;20029;-57
2022/07/17 03:22:36;;;;;;;7.40;1.42;;;10.70;99.90;;;;;;4999054;28;20030;-55
2022/07/17 03:25:02;;;;;;;4.45;1.60;;;10.70;99.90;;;;;;4993653;28;20054;-53
2022/07/17 03:27:28;;;;;;;6.90;1.50;;;10.70;99.90;;;;;;4989592;28;20033;-57
2022/07/17 03:29:54;;;;;;;4.38;1.30;;;10.70;99.90;;;;;;4991408;28;20026;-57
2022/07/17 03:32:20;;;;;;;5.65;1.65;;;10.70;99.90;;;;;;4992043;28;20081;-58
2022/07/17 03:34:46;;;;;;;4.22;1.60;;;10.70;99.90;;;;;;4990585;28;20029;-58
2022/07/17 03:37:12;;;;;;;4.68;1.63;;;10.70;99.90;;;;;;4992523;28;20064;-56
2022/07/17 03:39:38;;;;;;;7.32;1.70;;;10.70;99.90;;;;;;4991574;28;20038;-57
2022/07/17 03:42:04;;;;;;;5.82;1.55;;;10.60;99.90;;;;;;4991741;28;20081;-57
2022/07/17 03:44:29;;;;;;;9.73;2.28;;;10.60;99.90;;;;;;4990038;28;20125;-57
2022/07/17 03:46:55;;;;;;;5.47;1.40;;;10.50;99.90;;;;;;4991003;28;20018;-54
2022/07/17 03:49:21;;;;;;;6.40;1.33;;;10.50;99.90;;;;;;4989532;28;20022;-54
2022/07/17 03:51:47;;;;;;;5.38;1.58;;;10.50;99.90;;;;;;4990559;28;20034;-57
2022/07/17 03:54:13;;;;;;;6.80;1.23;;;10.60;99.90;;;;;;4989597;28;20103;-57
2022/07/17 03:56:39;;;;;;;7.40;1.77;;;10.60;99.90;;;;;;4990371;28;20115;-59
2022/07/17 03:59:04;;;;;;;4.35;1.67;;;10.60;99.90;;;;;;4989236;28;20100;-58
2022/07/17 04:01:30;;;;;;;5.03;1.90;;;10.60;99.90;;;;;;4973933;28;20058;-58
2022/07/17 04:03:56;;;;;;;3.28;1.75;;;10.60;99.90;;;;;;4989481;28;20030;-58
2022/07/17 04:06:21;;;;;;;13.52;1.92;;;10.60;99.90;;;;;;4992161;28;20411;-57
2022/07/17 04:08:47;;;;;;;5.45;1.48;;;10.60;99.90;;;;;;4989629;28;20034;-55
2022/07/17 04:11:12;;;;;;;7.07;1.45;;;10.50;99.90;;;;;;4989550;28;20065;-56
2022/07/17 04:13:38;;;;;;;5.07;1.70;;;10.50;99.90;;;;;;4989881;28;20038;-56
2022/07/17 04:16:05;;;;;;;2.17;1.30;;;10.50;99.90;;;;;;4986510;28;20183;-57
2022/07/17 04:18:33;;;;;;;4.13;1.80;;;10.50;99.90;;;;;;4990551;28;20084;-54
2022/07/17 04:21:04;;;;;;;7.55;2.40;;;10.50;99.90;;;;;;4990818;28;20030;-55
2022/07/17 04:23:31;;;;;;;4.07;1.52;;;10.50;99.90;;;;;;4994005;28;20132;-58
2022/07/17 04:25:56;;;;;;;4.35;1.50;;;10.50;99.90;;;;;;4995534;28;20411;-53
2022/07/17 04:28:22;;;;;;;6.78;1.90;;;10.60;99.90;;;;;;4990060;28;20033;-56
2022/07/17 04:30:48;;;;;;;7.20;1.40;;;10.60;99.90;;;;;;4990677;28;20041;-56
2022/07/17 04:33:14;;;;;;;3.40;1.45;;;10.70;99.90;;;;;;4990222;28;20432;-57
2022/07/17 04:35:40;;;;;;;7.25;1.38;;;10.70;99.90;;;;;;4990214;28;20560;-55
2022/07/17 04:38:06;;;;;;;3.72;1.70;;;10.80;99.90;;;;;;4990210;28;20038;-57
2022/07/17 04:40:33;;;;;;;2.17;1.23;;;11.10;99.90;;;;;;4990345;28;20070;-58
2022/07/17 04:42:59;;;;;;;4.68;1.48;;;12.10;99.90;;;;;;4989951;28;20480;-56
2022/07/17 04:45:25;;;;;;;6.80;1.85;;;13.00;99.90;;;;;;4990188;28;20092;-56
2022/07/17 04:47:51;;;;;;;7.55;1.50;;;14.10;99.90;;;;;;4989587;28;20089;-58
2022/07/17 04:50:16;;;;;;;5.95;2.03;;;15.70;99.90;;;;;;4985643;28;20077;-57
2022/07/17 04:52:42;;;;;;;4.70;1.90;;;17.20;97.30;;;;;;4994894;28;20026;-55
2022/07/17 04:55:08;;;;;;;6.22;2.00;;;17.70;93.90;;;;;;4996553;28;20422;-59
2022/07/17 04:57:33;;;;;;;4.70;1.90;;;18.70;92.40;;;;;;4989568;28;20510;-58
2022/07/17 04:59:59;;;;;;;6.18;1.70;;;18.90;91.50;;;;;;4989535;28;20105;-59
2022/07/17 05:02:25;;;;;;;6.72;1.73;;;19.20;90.50;;;;;;4972018;28;20082;-59
2022/07/17 05:04:50;;;;;;;6.80;1.50;;;20.00;88.20;;;;;;4990202;28;20062;-55
2022/07/17 05:07:17;;;;;;;6.03;1.40;;;20.30;87.40;;;;;;4987964;28;20030;-59
2022/07/17 05:09:42;;;;;;;4.22;1.60;;;21.30;83.70;;;;;;4989671;28;20076;-57
2022/07/17 05:12:08;;;;;;;7.15;1.70;;;21.70;81.00;;;;;;4990383;28;20022;-57
2022/07/17 05:14:34;;;;;;;4.57;1.67;;;22.10;79.60;;;;;;4989844;28;20031;-57
2022/07/17 05:17:00;;;;;;;3.38;1.40;;;22.00;78.00;;;;;;4988481;28;20066;-57
2022/07/17 05:19:26;;;;;;;2.65;1.38;;;21.90;78.70;;;;;;4991733;28;20546;-55
2022/07/17 05:21:51;;;;;;;2.75;1.45;;;22.30;77.40;;;;;;4990850;28;20054;-56
2022/07/17 05:24:17;;;;;;;3.28;1.20;;;22.80;77.30;;;;;;4988580;28;20741;-57
2022/07/17 05:26:43;;;;;;;3.67;1.30;;;23.20;74.70;;;;;;4995856;28;20026;-58
2022/07/17 05:29:08;;;;;;;2.92;1.25;;;23.40;74.30;;;;;;4990719;28;20129;-58
2022/07/17 05:31:34;;;;;;;6.03;1.60;;;23.50;74.40;;;;;;4989578;28;20053;-58
2022/07/17 05:34:00;;;;;;;3.95;1.38;;;23.50;72.80;;;;;;4989352;28;20030;-55
2022/07/17 05:36:25;;;;;;;3.22;1.42;;;24.30;70.90;;;;;;4992038;28;20033;-59
2022/07/17 05:38:51;;;;;;;3.10;1.10;;;24.50;72.10;;;;;;4991671;28;20026;-57
2022/07/17 05:41:17;;;;;;;2.55;1.00;;;25.90;69.10;;;;;;4991503;28;20037;-57
2022/07/17 05:43:43;;;;;;;4.97;1.58;;;25.90;68.00;;;;;;4993818;28;20149;-57
2022/07/17 05:46:08;;;;;;;3.42;1.60;;;25.60;67.10;;;;;;4991177;28;20514;-57
2022/07/17 05:48:34;;;;;;;4.53;1.95;;;25.10;68.00;;;;;;4993314;28;20120;-59
2022/07/17 05:51:00;;;;;;;6.40;1.30;;;25.60;67.80;;;;;;4995551;28;20029;-57
2022/07/17 05:53:26;;;;;;;2.70;1.30;;;25.90;67.70;;;;;;4993457;28;20022;-58
2022/07/17 05:55:51;;;;;;;5.97;2.30;;;26.00;66.10;;;;;;4999720;28;20109;-58
2022/07/17 05:58:17;;;;;;;3.92;1.40;;;25.30;66.60;;;;;;4992797;28;20023;-56
2022/07/17 06:00:43;;;;;;;4.00;1.60;;;25.50;67.00;;;;;;4992066;28;20054;-59
2022/07/17 06:03:09;;;;;;;5.15;1.77;;;26.00;65.10;;;;;;4978566;28;20046;-57
2022/07/17 06:05:35;;;;;;;4.28;1.20;;;25.70;66.00;;;;;;4991551;28;20045;-59
2022/07/17 06:08:01;;;;;;;7.00;1.15;;;26.90;65.40;;;;;;4992632;28;20040;-58
2022/07/17 06:10:27;;;;;;;4.28;1.08;;;27.20;64.30;;;;;;4990946;28;20053;-57
2022/07/17 06:12:53;;;;;;;3.85;1.60;;;27.10;63.90;;;;;;4992197;28;20498;-59
2022/07/17 06:15:21;;;;;;;2.85;1.20;;;26.70;64.10;;;;;;4991459;28;20038;-59
2022/07/17 06:17:47;;;;;;;2.60;1.35;;;26.80;63.80;;;;;;4991886;28;20502;-59
2022/07/17 06:20:14;;;;;;;3.78;1.17;;;27.60;63.50;;;;;;4994791;28;20038;-57
2022/07/17 06:22:40;;;;;;;7.20;1.60;;;27.40;62.70;;;;;;4998119;28;20021;-59
2022/07/17 06:25:07;;;;;;;6.15;1.58;;;28.40;62.60;;;;;;5000239;28;20030;-59
2022/07/17 06:27:33;;;;;;;3.53;1.45;;;28.10;60.80;;;;;;4992689;28;20484;-58
2022/07/17 06:29:59;;;;;;;5.65;1.20;;;27.60;61.70;;;;;;4994351;28;20033;-59
2022/07/17 06:32:25;;;;;;;14.93;1.48;;;28.10;60.00;;;;;;4992152;28;20097;-59
2022/07/17 06:34:50;;;;;;;5.30;1.40;;;27.90;60.90;;;;;;4989893;28;20026;-60
2022/07/17 06:37:16;;;;;;;5.45;1.52;;;30.10;60.20;;;;;;4993107;28;20038;-57
2022/07/17 06:39:41;;;;;;;7.47;1.40;;;30.20;59.20;;;;;;4991830;28;20105;-59
2022/07/17 06:42:07;;;;;;;4.43;1.20;;;30.00;58.60;;;;;;4991836;28;20038;-59
2022/07/17 06:44:34;;;;;;;8.43;1.38;;;29.70;57.80;;;;;;4991289;28;20050;-59
2022/07/17 06:46:59;;;;;;;4.68;1.30;;;29.00;59.50;;;;;;4992666;28;20113;-58
2022/07/17 06:49:25;;;;;;;6.82;1.52;;;29.30;58.80;;;;;;4991524;28;20165;-60
2022/07/17 06:51:51;;;;;;;4.15;1.73;;;28.90;60.10;;;;;;4992495;28;20499;-60
2022/07/17 06:54:17;;;;;;;3.45;1.33;;;29.20;59.00;;;;;;4991202;28;20105;-58
2022/07/17 06:56:42;;;;;;;3.78;1.63;;;29.60;58.00;;;;;;4991800;28;20034;-58
2022/07/17 06:59:08;;;;;;;7.60;1.23;;;30.60;57.90;;;;;;4991287;28;20035;-59
2022/07/17 07:01:35;;;;;;;3.17;1.13;;;30.30;56.80;;;;;;4991699;28;20547;-59
2022/07/17 07:04:00;;;;;;;6.45;1.25;;;31.10;56.80;;;;;;4987427;28;20050;-60
2022/07/17 07:06:26;;;;;;;4.60;1.42;;;31.40;55.80;;;;;;4992666;28;20030;-58
2022/07/17 07:08:52;;;;;;;4.32;1.00;;;31.20;55.20;;;;;;4992097;28;20649;-60
2022/07/17 07:11:17;;;;;;;6.57;1.60;;;32.00;56.70;;;;;;4997173;28;20049;-59
2022/07/17 07:13:43;;;;;;;1.45;0.98;;;31.80;55.70;;;;;;4996509;28;20034;-60
2022/07/17 07:16:08;;;;;;;4.40;1.35;;;31.80;55.10;;;;;;4991005;28;20058;-58
2022/07/17 07:18:34;;;;;;;3.22;1.30;;;32.30;54.30;;;;;;4992620;28;20018;-59
2022/07/17 07:21:00;;;;;;;4.68;1.17;;;32.50;53.90;;;;;;4988474;28;20026;-58
2022/07/17 07:23:25;;;;;;;4.15;1.10;;;33.00;53.90;;;;;;5001458;28;20026;-59
2022/07/17 07:25:51;;;;;;;4.47;1.30;;;31.80;53.10;;;;;;5010104;28;20033;-60
2022/07/17 07:28:16;;;;;;;3.28;1.23;;;31.90;53.60;;;;;;4992622;28;20026;-60
2022/07/17 07:30:42;;;;;;;2.47;0.90;;;31.20;54.10;;;;;;5020257;22;20041;-60
2022/07/17 07:33:08;;;;;;;4.50;1.33;;;31.20;53.80;;;;;;5023855;28;20022;-61
2022/07/17 07:35:33;;;;;;;4.45;1.73;;;32.10;53.90;;;;;;5026584;28;20482;-61
2022/07/17 07:37:59;;;;;;;2.67;1.13;;;31.10;53.60;;;;;;5023673;28;20026;-61
2022/07/17 07:40:24;;;;;;;4.53;1.45;;;30.60;54.00;;;;;;5021490;28;20064;-61
2022/07/17 07:42:50;;;;;;;2.75;1.10;;;31.00;53.80;;;;;;5030941;28;20052;-61
2022/07/17 07:45:16;;;;;;;3.30;1.20;;;30.90;54.20;;;;;;5028227;28;20394;-61
2022/07/17 07:47:44;;;;;;;3.80;1.20;;;31.10;53.50;;;;;;5029955;28;20017;-61
2022/07/17 07:50:11;;;;;;;2.70;1.30;;;32.50;53.60;;;;;;5028208;28;20559;-61
2022/07/17 07:52:37;;;;;;;5.13;1.20;;;33.10;52.30;;;;;;5029677;28;20022;-61
2022/07/17 07:55:04;;;;;;;4.82;1.30;;;33.40;52.50;;;;;;5027371;28;20521;-61
2022/07/17 07:57:29;;;;;;;3.40;1.35;;;32.90;51.80;;;;;;5028917;28;20041;-61
2022/07/17 07:59:55;;;;;;;3.40;1.05;;;33.10;52.00;;;;;;5029232;28;20104;-61
2022/07/17 08:02:21;;;;;;;3.55;1.20;;;33.40;51.20;;;;;;5028935;28;20037;-61
2022/07/17 08:04:46;;;;;;;8.88;1.65;;;32.40;52.10;;;;;;5012308;28;20052;-61
2022/07/17 08:07:12;;;;;;;3.95;1.08;;;32.30;51.30;;;;;;5028953;28;20558;-61
2022/07/17 08:09:37;;;;;;;6.10;1.55;;;31.90;52.70;;;;;;5028156;28;20083;-61
2022/07/17 08:12:03;;;;;;;5.40;1.42;;;32.10;53.80;;;;;;5030106;28;20052;-59
2022/07/17 08:14:28;;;;;;;3.55;1.50;;;31.70;51.50;;;;;;5027813;28;20079;-61
2022/07/17 08:16:54;;;;;;;2.85;1.20;;;31.80;52.20;;;;;;5028624;28;20106;-61
2022/07/17 08:19:21;;;;;;;5.32;0.90;;;31.80;50.70;;;;;;5029247;28;20469;-61
2022/07/17 08:21:46;;;;;;;11.18;1.77;;;32.10;52.20;;;;;;5029296;28;20025;-61
2022/07/17 08:24:12;;;;;;;4.70;0.98;;;33.10;51.00;;;;;;5025722;28;20089;-61
2022/07/17 08:26:37;;;;;;;3.20;1.40;;;33.00;49.70;;;;;;5028809;28;20037;-61
2022/07/17 08:29:03;;;;;;;2.67;1.15;;;33.80;49.40;;;;;;5028354;28;20021;-61
2022/07/17 08:31:29;;;;;;;4.78;1.23;;;33.20;48.90;;;;;;5029325;28;20033;-61
2022/07/17 08:33:55;;;;;;;2.95;1.20;;;33.10;49.50;;;;;;5030566;28;20027;-61
2022/07/17 08:36:20;;;;;;;4.85;1.83;;;33.50;48.80;;;;;;5029645;28;20021;-61
2022/07/17 08:38:46;;;;;;;8.45;1.30;;;33.20;50.50;;;;;;5029130;28;20041;-60
2022/07/17 08:41:16;;;;;;;4.07;1.40;;;34.10;47.50;;;;;;5027425;28;20550;-59
2022/07/17 08:43:42;;;;;;;5.38;1.13;;;34.50;45.90;;;;;;5027538;28;20112;-61
2022/07/17 08:46:11;;;;;;;6.45;1.45;;;34.70;46.00;;;;;;5024748;28;20459;-61
2022/07/17 08:48:39;;;;;;;3.60;1.10;;;34.30;46.50;;;;;;5023652;28;20044;-60
2022/07/17 08:51:06;;;;;;;6.65;1.73;;;34.20;47.70;;;;;;5027103;28;20072;-61
2022/07/17 08:53:31;;;;;;;5.35;1.35;;;33.90;47.70;;;;;;5028800;28;20037;-61
2022/07/17 08:55:58;;;;;;;5.20;1.17;;;34.20;48.10;;;;;;5029420;28;20021;-61
2022/07/17 08:58:23;;;;;;;7.25;1.50;;;33.80;46.70;;;;;;5029394;28;20115;-61
2022/07/17 09:00:50;;;;;;;5.57;1.48;;;33.60;46.80;;;;;;5027713;28;20474;-62
2022/07/17 09:03:17;;;;;;;3.38;1.20;;;34.50;46.60;;;;;;5013045;28;20132;-60
2022/07/17 09:05:44;;;;;;;3.88;0.90;;;33.70;45.50;;;;;;5028832;28;20037;-61
2022/07/17 09:08:19;;;;;;;2.95;1.13;;;33.30;46.30;;;;;;5027510;28;20041;-61
2022/07/17 09:10:47;;;;;;;5.93;1.83;;;34.00;46.80;;;;;;5027386;28;20026;-61
2022/07/17 09:13:18;;;;;;;6.88;1.30;;;33.40;46.40;;;;;;5030291;28;20033;-61
2022/07/17 09:15:45;;;;;;;4.93;1.25;;;33.30;47.00;;;;;;5028016;28;20036;-61
2022/07/17 09:18:11;;;;;;;3.85;1.38;;;33.00;46.30;;;;;;5029929;28;20411;-61
2022/07/17 09:20:53;;;;;;;6.68;1.25;;;32.30;47.10;;;;;;5032478;28;20259;-62
2022/07/17 09:23:20;;;;;;;;;;;32.20;48.30;;;;;;5031588;28;20038;-60
2022/07/17 09:25:48;;;;;;;3.53;1.35;;;33.00;47.70;;;;;;5028559;28;20366;-61
2022/07/17 09:28:15;;;;;;;5.22;1.42;;;32.90;46.30;;;;;;5032799;28;20037;-61
2022/07/17 09:30:44;;;;;;;5.85;1.30;;;32.00;47.40;;;;;;5028583;28;20017;-60
2022/07/17 09:33:19;;;;;;;6.53;1.48;;;31.40;47.50;;;;;;5030733;28;20033;-61
2022/07/17 09:35:53;;;;;;;4.05;1.23;;;31.60;48.50;;;;;;5027519;28;20107;-61
2022/07/17 09:38:35;;;;;;;5.53;2.00;;;32.60;47.80;;;;;;5030414;28;20384;-60
2022/07/17 09:41:22;;;;;;;6.20;1.10;;;32.20;48.60;;;;;;5030836;28;20132;-61
2022/07/17 09:43:53;;;;;;;2.60;1.00;;;32.00;47.80;;;;;;5024960;28;20399;-60
2022/07/17 09:46:24;;;;;;;5.10;1.10;;;32.50;48.40;;;;;;5032844;28;20029;-61
2022/07/17 09:48:53;;;;;;;4.50;1.45;;;32.80;45.90;;;;;;5029213;28;20404;-60
2022/07/17 09:51:24;;;;;;;5.35;1.35;;;32.40;46.30;;;;;;5030513;28;20026;-60
2022/07/17 09:53:52;;;;;;;1.50;0.90;;;32.50;43.90;;;;;;5022323;28;20388;-60
2022/07/17 09:56:20;;;;;;;3.42;1.55;;;31.90;45.30;;;;;;5031722;28;20119;-61
2022/07/17 09:58:52;;;;;;;6.45;1.35;;;31.60;44.80;;;;;;5033459;28;20075;-60
2022/07/17 10:01:19;;;;;;;4.28;1.20;;;31.20;46.80;;;;;;5025592;28;20030;-60
2022/07/17 10:03:48;;;;;;;3.75;1.00;;;30.90;47.90;;;;;;5013268;28;20037;-60
2022/07/17 10:06:14;;;;;;;4.63;1.25;;;31.20;46.20;;;;;;5029936;28;20041;-60
2022/07/17 10:08:40;;;;;;;5.63;1.10;;;31.80;46.10;;;;;;5033500;28;20083;-60
2022/07/17 10:11:08;;;;;;;5.57;1.17;;;31.70;46.30;;;;;;5023972;28;20018;-61
2022/07/17 10:13:36;;;;;;;3.83;1.20;;;31.60;47.10;;;;;;5022073;28;20029;-57
2022/07/17 10:16:03;;;;;;;3.65;1.10;;;30.70;47.20;;;;;;5025404;28;20047;-59
2022/07/17 10:18:36;;;;;;;3.90;1.17;;;30.20;48.00;;;;;;5025761;28;20040;-58
2022/07/17 10:21:09;;;;;;;4.75;1.00;;;29.50;48.20;;;;;;5027295;28;20042;-58
2022/07/17 10:23:35;;;;;;;;;;;29.60;49.20;;;;;;5030908;28;20025;-55
2022/07/17 10:26:01;;;;;;;4.07;1.25;;;29.00;49.60;;;;;;5023374;28;20433;-59
2022/07/17 10:28:47;;;;;;;2.83;1.00;;;29.30;49.90;;;;;;5025536;28;20033;-58
2022/07/17 10:31:24;;;;;;;6.63;0.98;;;29.50;47.60;;;;;;5026686;28;20824;-58
2022/07/17 10:34:16;;;;;;;5.10;1.38;;;29.10;48.10;;;;;;5021381;28;20479;-57
2022/07/17 10:36:43;;;;;;;2.40;1.10;;;28.80;48.30;;;;;;5024539;28;20038;-58
2022/07/17 10:39:12;;;;;;;3.95;1.33;;;28.50;48.40;;;;;;5030776;28;20033;-57
2022/07/17 10:41:39;;;;;;;7.60;1.52;;;28.30;50.60;;;;;;5032170;28;20740;-57
2022/07/17 10:44:05;;;;;;;4.10;1.20;;;28.50;50.00;;;;;;5029241;28;20040;-55
2022/07/17 10:46:30;;;;;;;6.47;1.33;;;28.70;49.00;;;;;;5026077;28;20411;-54
2022/07/17 10:48:57;;;;;;;3.40;1.05;;;29.00;49.70;;;;;;5027346;28;20028;-59
2022/07/17 10:51:27;;;;;;;5.78;1.67;;;28.90;49.10;;;;;;5024894;28;20033;-59
2022/07/17 10:53:57;;;;;;;4.78;0.90;;;28.90;49.30;;;;;;5031033;28;20029;-59
2022/07/17 10:56:24;;;;;;;2.45;0.95;;;28.90;47.80;;;;;;5026159;28;20589;-57
2022/07/17 10:58:51;;;;;;;4.93;1.10;;;28.60;47.40;;;;;;5023973;28;20226;-56
2022/07/17 11:01:19;;;;;;;2.13;1.00;;;28.20;47.20;;;;;;5028245;28;20048;-58
2022/07/17 11:03:56;;;;;;;2.45;1.20;;;28.30;50.40;;;;;;5006059;28;20050;-59
2022/07/17 11:06:22;;;;;;;2.25;1.05;;;28.20;49.50;;;;;;5025514;28;20033;-57
2022/07/17 11:08:56;;;;;;;3.08;1.10;;;28.10;50.30;;;;;;5023488;28;20028;-57
2022/07/17 11:11:43;;;;;;;1.65;0.93;;;28.10;49.00;;;;;;5023945;28;20031;-59
2022/07/17 11:14:13;;;;;;;8.88;1.50;;;28.10;47.80;;;;;;5030548;28;20033;-57
2022/07/17 11:16:54;;;;;;;4.13;1.17;;;27.80;48.00;;;;;;5029857;28;20391;-58
2022/07/17 11:19:21;;;;;;;2.10;1.00;;;27.70;48.80;;;;;;5028344;28;20033;-53
2022/07/17 11:21:48;;;;;;;3.83;0.90;;;27.80;48.30;;;;;;5029372;28;20092;-59
2022/07/17 11:24:14;;;;;;;2.50;1.00;;;27.80;48.60;;;;;;5029287;28;20104;-59
2022/07/17 11:26:39;;;;;;;3.67;0.95;;;27.40;48.60;;;;;;5029329;28;20057;-57
2022/07/17 11:29:05;;;;;;;4.35;1.02;;;27.50;49.40;;;;;;5029221;28;20049;-58
2022/07/17 11:31:31;;;;;;;4.70;1.00;;;27.50;50.90;;;;;;5025044;28;20042;-59
2022/07/17 11:33:59;;;;;;;3.95;0.95;;;27.70;51.40;;;;;;5020746;28;20060;-56
2022/07/17 11:36:31;;;;;;;5.22;1.10;;;27.70;50.60;;;;;;5015946;28;20028;-58
2022/07/17 11:38:59;;;;;;;5.10;1.33;;;27.70;52.20;;;;;;5021784;28;20071;-59
2022/07/17 11:41:52;;;;;;;5.63;1.67;;;27.70;51.70;;;;;;5024816;28;20395;-61
2022/07/17 11:44:21;;;;;;;4.60;1.00;;;27.40;51.90;;;;;;5023281;28;20063;-58
2022/07/17 11:46:49;;;;;;;2.28;1.10;;;27.10;53.40;;;;;;5031048;28;20029;-58
2022/07/17 11:49:28;;;;;;;3.33;1.15;;;27.00;51.50;;;;;;5028870;28;20030;-54
2022/07/17 11:51:59;;;;;;;7.45;1.38;;;26.60;53.60;;;;;;5031149;28;20023;-60
2022/07/17 11:54:26;;;;;;;5.00;1.10;;;26.60;53.50;;;;;;5028734;28;20487;-59
2022/07/17 11:56:57;;;;;;;5.25;1.30;;;26.60;52.90;;;;;;5028705;28;20049;-55
2022/07/17 11:59:28;;;;;;;3.88;1.10;;;26.60;52.80;;;;;;5028626;28;20095;-60
2022/07/17 12:01:54;;;;;;;2.97;1.08;;;26.60;51.30;;;;;;5029237;28;20372;-59
2022/07/17 12:04:20;;;;;;;6.38;0.90;;;26.60;50.70;;;;;;5012406;28;20049;-58
2022/07/17 12:06:57;;;;;;;6.65;1.70;;;26.60;51.60;;;;;;5029646;28;20446;-59
2022/07/17 12:09:33;;;;;;;3.60;1.05;;;26.40;51.50;;;;;;5020670;28;20033;-58
2022/07/17 12:11:59;;;;;;;4.07;1.10;;;26.20;52.00;;;;;;5023307;28;20033;-59
2022/07/17 12:14:25;;;;;;;4.78;1.30;;;26.10;51.30;;;;;;5028145;28;20800;-58
2022/07/17 12:16:51;;;;;;;3.83;1.23;;;26.20;52.60;;;;;;5028580;28;20072;-59
2022/07/17 12:19:19;;;;;;;8.30;1.00;;;26.50;53.30;;;;;;5029875;28;20032;-57
2022/07/17 12:21:50;;;;;;;3.42;0.93;;;26.60;52.90;;;;;;5028607;28;20025;-57
2022/07/17 12:24:28;;;;;;;2.35;1.00;;;26.70;51.50;;;;;;5025741;28;20947;-57
2022/07/17 12:26:59;;;;;;;5.13;1.10;;;26.70;51.80;;;;;;5015379;28;20052;-57
2022/07/17 12:29:25;;;;;;;4.72;1.08;;;26.80;50.00;;;;;;5025264;28;20033;-59
2022/07/17 12:32:05;;;;;;;6.38;1.50;;;26.90;51.90;;;;;;5021740;28;20037;-59
2022/07/17 12:34:31;;;;;;;3.80;1.08;;;26.80;50.50;;;;;;5028144;28;20053;-57
2022/07/17 12:36:56;;;;;;;4.32;1.33;;;26.80;51.40;;;;;;5027136;28;20057;-56
2022/07/17 12:39:22;;;;;;;4.85;1.13;;;26.80;50.60;;;;;;5029762;28;20100;-59
2022/07/17 12:41:48;;;;;;;4.70;1.15;;;27.00;50.20;;;;;;5028743;28;20032;-60
2022/07/17 12:44:13;;;;;;;3.10;1.00;;;26.90;50.80;;;;;;5029834;28;20537;-59
2022/07/17 12:46:39;;;;;;;2.97;1.05;;;26.80;50.60;;;;;;5027539;28;20030;-60